Monument Valley, UT (84536)

3:30 AM MDT on July 23, 2014 (GMT -0600)
Page Municipal (KPGA) Elev 4308 ft | 36.92 °N, 111.45 °W | Change Station

Current weather conditions updated 37 minutes ago

Clear
Clear
86 °F
Feels Like 86 °F
N
0
Wind Variable Wind from North

Today is forecast to be Much Cooler than yesterday.

Today
High -- | Low -- °F
--% Chance of Precip.
Yesterday
High -- | Low -- °F
Precip. -- in
6:20 AM 8:37 PM
Waning Crescent, 11% visible
Pressure 29.89 in
Visibility 10.0 miles
Clouds Clear
Dew Point 34 °F
Humidity 16%
Rainfall 0.00 in
Snow Depth Not available.
UV 0 out of 12
Pollen 4.90 out of 12
Air Quality Not available.
Flu Activity Not available.
METAR KPGA 230853Z AUTO 00000KT 10SM CLR 30/01 A3014 RMK AO2 SLP122 T03000011 51005

More Conditions Fewer Conditions

Pressure 29.89 in
Visibility 10.0 miles
Clouds Clear
Dew Point 34 °F
Humidity 16%
Rainfall 0.00 in
Snow Depth Not available.
UV 0 out of 12
Pollen 4.90 out of 12
Air Quality Not available.
Flu Activity Not available.
METAR KPGA 230853Z AUTO 00000KT 10SM CLR 30/01 A3014 RMK AO2 SLP122 T03000011 51005

More Conditions Fewer Conditions

10-Day Weather Forecast

Almanac

Astronomy

Jul. 23, 2014 Rise Set
Actual Time 6:20 AM MDT 8:37 PM MDT
Civil Twilight 5:50 AM MDT 9:06 PM MDT
Nautical Twilight 5:14 AM MDT 9:42 PM MDT
Astronomical Twilight 4:34 AM MDT 10:22 PM MDT
Moon 3:41 AM MDT 6:09 PM MDT
Length of Visible Light 15h 15m
Length of Day
14h 16m
Tomorrow will be 1m 31s shorter.
Waning Crescent, 11% of the Moon is Illuminated
Today
Waning Crescent
Jul 26
New
Aug 3
First Quarter
Aug 10
Full
Aug 17
Last Quarter

Today's Extremes

State Highs State Lows

Community

WunderPhotos

Upload Photos

1,736,535 photos uploaded!

Nearby

Snow Depth

Station Depth Elevation
Clayton Springs 0 in 10000 ft
Agua Canyon 3 in 8900 ft
Long Valley Jct 0 in 7360 ft
Black Flat-U.M. Creek 0 in 9400 ft
Box Creek 1 in 9800 ft

Earthquake Activity

City Distance Mag. Time & Date
No recent earthquake activity has been reported nearby.
Minimum magnitude displayed is 2.5.

Coastal Water Temperatures

Place Temperature
No Stations Reporting

Nearby Weather Stations

There are no personal weather stations in this area.